createdAt,value
2018-12-09T00:00:50.947Z,15.10
2018-12-09T00:03:19.926Z,2.67
2018-12-09T00:05:48.896Z,5.90
2018-12-09T00:08:17.920Z,2.63
2018-12-09T00:10:47.553Z,3.10
2018-12-09T00:13:16.973Z,0.87
2018-12-09T00:15:45.912Z,2.57
2018-12-09T00:18:14.922Z,0.57
2018-12-09T00:20:43.932Z,1.50
2018-12-09T00:23:12.909Z,0.90
2018-12-09T00:25:41.782Z,0.93
2018-12-09T00:28:10.719Z,0.80
2018-12-09T00:30:39.897Z,0.53
2018-12-09T00:33:08.843Z,0.87
2018-12-09T00:35:38.466Z,0.97
2018-12-09T00:38:07.375Z,1.60
2018-12-09T00:40:36.398Z,2.10
2018-12-09T00:43:05.618Z,1.47
2018-12-09T00:45:34.591Z,4.83
2018-12-09T00:48:03.905Z,5.27
2018-12-09T00:50:32.988Z,4.50
2018-12-09T00:53:02.001Z,2.70
2018-12-09T00:55:31.009Z,2.40
2018-12-09T00:57:59.895Z,1.40
2018-12-09T01:00:28.867Z,2.70
2018-12-09T01:02:57.908Z,4.20
2018-12-09T01:05:27.511Z,3.10
2018-12-09T01:07:56.957Z,5.43
2018-12-09T01:10:26.124Z,4.63
2018-12-09T01:12:55.043Z,4.87
2018-12-09T01:15:24.055Z,4.07
2018-12-09T01:17:52.983Z,9.80
2018-12-09T01:20:22.875Z,6.03
2018-12-09T01:22:51.820Z,5.90
2018-12-09T01:25:20.789Z,6.23
2018-12-09T01:27:49.685Z,6.03
2018-12-09T01:30:18.906Z,11.67
2018-12-09T01:32:48.305Z,6.17
2018-12-09T01:35:17.269Z,7.30
2018-12-09T01:37:46.231Z,10.07
2018-12-09T01:40:15.147Z,13.47
2018-12-09T01:42:44.148Z,12.80
2018-12-09T01:45:13.407Z,11.10
2018-12-09T01:47:42.513Z,11.60
2018-12-09T01:50:11.451Z,14.93
2018-12-09T01:52:40.383Z,7.23
2018-12-09T01:55:09.447Z,6.73
2018-12-09T01:57:38.974Z,15.70
2018-12-09T02:00:07.930Z,4.67
2018-12-09T02:02:36.897Z,10.73
2018-12-09T02:05:06.246Z,12.47
2018-12-09T02:07:35.239Z,6.80
2018-12-09T02:10:04.793Z,5.30
2018-12-09T02:12:34.089Z,3.83
2018-12-09T02:15:03.232Z,1.67
2018-12-09T02:17:32.560Z,1.97
2018-12-09T02:20:01.511Z,3.07
2018-12-09T02:22:30.941Z,2.30
2018-12-09T02:24:59.867Z,2.63
2018-12-09T02:27:29.075Z,1.63
2018-12-09T02:29:58.003Z,0.77
2018-12-09T02:32:27.187Z,1.97
2018-12-09T02:34:56.232Z,1.70
2018-12-09T02:37:25.186Z,4.23
2018-12-09T02:39:54.624Z,3.40
2018-12-09T02:42:23.694Z,1.03
2018-12-09T02:44:52.615Z,2.50
2018-12-09T02:47:21.591Z,1.53
2018-12-09T02:49:50.532Z,3.00
2018-12-09T02:52:19.569Z,4.03
2018-12-09T02:54:49.448Z,6.67
2018-12-09T02:57:18.393Z,3.20
2018-12-09T02:59:47.349Z,4.40
2018-12-09T03:02:16.494Z,4.83
2018-12-09T03:04:45.549Z,4.83
2018-12-09T03:07:14.531Z,6.97
2018-12-09T03:09:43.507Z,8.63
2018-12-09T03:12:12.868Z,13.53
2018-12-09T03:14:43.683Z,8.07
2018-12-09T03:17:12.627Z,8.67
2018-12-09T03:19:41.585Z,6.57
2018-12-09T03:22:10.472Z,5.67
2018-12-09T03:24:39.520Z,5.33
2018-12-09T03:27:08.747Z,4.57
2018-12-09T03:29:37.793Z,3.70
2018-12-09T03:32:06.794Z,4.60
2018-12-09T03:34:36.068Z,1.53
2018-12-09T03:37:05.753Z,3.03
2018-12-09T03:39:34.708Z,1.27
2018-12-09T03:42:03.637Z,3.67
2018-12-09T03:44:32.961Z,4.70
2018-12-09T03:47:01.894Z,2.47
2018-12-09T03:49:30.913Z,3.67
2018-12-09T03:51:59.824Z,5.07
2018-12-09T03:54:29.034Z,2.77
2018-12-09T03:56:58.025Z,1.57
2018-12-09T03:59:26.954Z,2.37
2018-12-09T04:01:56.731Z,1.60
2018-12-09T04:04:26.103Z,3.00
2018-12-09T04:06:55.244Z,2.13
2018-12-09T04:09:24.254Z,2.00
2018-12-09T04:11:53.276Z,1.80
2018-12-09T04:14:22.494Z,1.40
2018-12-09T04:16:51.505Z,1.67
2018-12-09T04:19:20.475Z,2.90
2018-12-09T04:21:49.391Z,3.50
2018-12-09T04:24:18.378Z,2.63
2018-12-09T04:26:47.729Z,2.07
2018-12-09T04:29:17.113Z,4.37
2018-12-09T04:31:46.032Z,2.87
2018-12-09T04:34:14.934Z,2.43
2018-12-09T04:36:44.031Z,2.60
2018-12-09T04:39:13.037Z,3.83
2018-12-09T04:41:42.021Z,2.77
2018-12-09T04:44:11.410Z,2.20
2018-12-09T04:46:40.489Z,3.60
2018-12-09T04:49:09.393Z,3.10
2018-12-09T04:51:52.276Z,3.17
2018-12-09T04:54:21.645Z,5.17
2018-12-09T04:56:50.743Z,4.60
2018-12-09T04:59:22.793Z,4.37
2018-12-09T05:01:51.877Z,4.60
2018-12-09T05:04:20.935Z,1.70
2018-12-09T05:06:49.917Z,3.13
2018-12-09T05:09:18.909Z,4.43
2018-12-09T05:11:48.775Z,1.80
2018-12-09T05:14:17.747Z,3.80
2018-12-09T05:16:46.936Z,4.43
2018-12-09T05:19:15.863Z,5.53
2018-12-09T05:21:44.848Z,3.80
2018-12-09T05:24:13.827Z,5.73
2018-12-09T05:26:42.818Z,5.30
2018-12-09T05:29:11.894Z,5.17
2018-12-09T05:31:41.752Z,4.53
2018-12-09T05:34:11.427Z,4.87
2018-12-09T05:36:40.511Z,1.87
2018-12-09T05:39:09.890Z,6.53
2018-12-09T05:41:39.104Z,2.07
2018-12-09T05:44:08.355Z,1.83
2018-12-09T05:46:37.362Z,4.03
2018-12-09T05:49:07.143Z,5.03
2018-12-09T05:51:36.304Z,4.67
2018-12-09T05:54:05.295Z,3.70
2018-12-09T05:56:34.200Z,3.87
2018-12-09T05:59:03.160Z,2.10
2018-12-09T06:01:32.130Z,4.37
2018-12-09T06:04:01.101Z,6.63
2018-12-09T06:06:30.674Z,4.33
2018-12-09T06:08:59.974Z,4.57
2018-12-09T06:11:28.864Z,5.57
2018-12-09T06:13:57.763Z,5.37
2018-12-09T06:16:26.770Z,4.07
2018-12-09T06:18:55.947Z,6.50
2018-12-09T06:21:24.818Z,8.37
2018-12-09T06:23:54.078Z,4.43
2018-12-09T06:26:22.983Z,6.00
2018-12-09T06:28:51.998Z,15.97
2018-12-09T06:31:21.729Z,6.23
2018-12-09T06:33:50.901Z,9.10
2018-12-09T06:36:19.818Z,6.97
2018-12-09T06:38:48.734Z,5.37
2018-12-09T06:41:17.724Z,8.33
2018-12-09T06:43:46.674Z,8.03
2018-12-09T06:46:17.483Z,7.60
2018-12-09T06:48:46.525Z,11.03
2018-12-09T06:51:15.654Z,8.33
2018-12-09T06:53:44.605Z,5.43
2018-12-09T06:56:14.127Z,10.00
2018-12-09T06:58:43.074Z,4.83
2018-12-09T07:01:12.048Z,7.63
2018-12-09T07:03:41.042Z,7.30
2018-12-09T07:06:10.018Z,5.20
2018-12-09T07:08:39.022Z,1.83
2018-12-09T07:11:08.203Z,3.00
2018-12-09T07:13:37.356Z,4.10
2018-12-09T07:16:06.298Z,7.80
2018-12-09T07:18:35.936Z,3.17
2018-12-09T07:21:05.209Z,3.13
2018-12-09T07:23:34.533Z,2.60
2018-12-09T07:26:03.726Z,4.77
2018-12-09T07:28:33.764Z,2.43
2018-12-09T07:31:02.920Z,4.60
2018-12-09T07:33:31.787Z,3.57
2018-12-09T07:36:00.750Z,2.37
2018-12-09T07:38:29.821Z,3.23
2018-12-09T07:40:59.302Z,4.23
2018-12-09T07:43:28.574Z,2.00
2018-12-09T07:45:57.642Z,4.67
2018-12-09T07:48:26.556Z,2.80
2018-12-09T07:50:56.481Z,2.60
2018-12-09T07:53:25.887Z,1.40
2018-12-09T07:55:54.894Z,2.80
2018-12-09T07:58:23.811Z,5.27
2018-12-09T08:00:52.776Z,2.57
2018-12-09T08:03:21.683Z,1.63
2018-12-09T08:05:50.642Z,3.70
2018-12-09T08:08:19.593Z,3.50
2018-12-09T08:10:48.544Z,3.37
2018-12-09T08:13:17.531Z,7.17
2018-12-09T08:15:46.571Z,2.27
2018-12-09T08:18:15.502Z,4.30
2018-12-09T08:20:44.625Z,5.23
2018-12-09T08:23:13.977Z,3.90
2018-12-09T08:25:43.084Z,2.30
2018-12-09T08:28:12.014Z,3.47
2018-12-09T08:30:40.957Z,1.20
2018-12-09T08:33:09.930Z,3.10
2018-12-09T08:35:38.898Z,4.37
2018-12-09T08:38:07.801Z,3.30
2018-12-09T08:40:36.752Z,3.30
2018-12-09T08:43:05.652Z,2.33
2018-12-09T08:45:34.647Z,3.00
2018-12-09T08:48:03.571Z,3.00
2018-12-09T08:50:32.490Z,5.80
2018-12-09T08:53:01.673Z,1.63
2018-12-09T08:55:30.829Z,2.33
2018-12-09T08:58:00.171Z,6.77
2018-12-09T09:00:29.518Z,3.80
2018-12-09T09:02:58.794Z,3.57
2018-12-09T09:05:27.743Z,4.97
2018-12-09T09:07:56.782Z,4.97
2018-12-09T09:10:26.228Z,1.57
2018-12-09T09:12:55.205Z,3.63
2018-12-09T09:15:30.110Z,4.03
2018-12-09T09:17:59.127Z,7.77
2018-12-09T09:20:28.242Z,2.50
2018-12-09T09:22:57.265Z,3.33
2018-12-09T09:25:26.192Z,3.50
2018-12-09T09:27:55.200Z,2.47
2018-12-09T09:30:24.361Z,2.53
2018-12-09T09:32:53.385Z,1.80
2018-12-09T09:35:22.566Z,3.53
2018-12-09T09:37:51.533Z,4.50
2018-12-09T09:40:20.461Z,4.47
2018-12-09T09:42:49.444Z,2.80
2018-12-09T09:45:18.434Z,4.80
2018-12-09T09:47:47.417Z,8.87
2018-12-09T09:50:16.495Z,2.80
2018-12-09T09:52:45.452Z,6.07
2018-12-09T09:55:14.354Z,6.37
2018-12-09T09:57:43.374Z,5.03
2018-12-09T10:00:12.325Z,5.57
2018-12-09T10:02:41.232Z,9.63
2018-12-09T10:05:10.144Z,12.30
2018-12-09T10:07:39.109Z,9.37
2018-12-09T10:10:08.128Z,8.47
2018-12-09T10:12:37.278Z,12.77
2018-12-09T10:15:06.558Z,9.70
2018-12-09T10:17:35.485Z,6.27
2018-12-09T10:20:05.210Z,6.57
2018-12-09T10:22:34.503Z,8.57
2018-12-09T10:25:03.717Z,8.87
2018-12-09T10:27:32.648Z,7.77
2018-12-09T10:30:02.052Z,7.63
2018-12-09T10:32:30.962Z,8.57
2018-12-09T10:34:59.966Z,7.27
2018-12-09T10:37:28.831Z,7.23
2018-12-09T10:39:57.811Z,9.40
2018-12-09T10:42:26.684Z,7.73
2018-12-09T10:44:55.673Z,8.97
2018-12-09T10:47:24.931Z,5.30
2018-12-09T10:49:53.921Z,7.80
2018-12-09T10:52:22.889Z,6.50
2018-12-09T10:54:52.167Z,5.90
2018-12-09T10:57:21.075Z,7.10
2018-12-09T10:59:50.188Z,7.77
2018-12-09T11:02:19.835Z,4.67
2018-12-09T11:04:48.811Z,5.13
2018-12-09T11:07:17.746Z,5.43
2018-12-09T11:09:46.719Z,5.13
2018-12-09T11:12:15.704Z,3.03
2018-12-09T11:14:44.625Z,4.97
2018-12-09T11:17:13.607Z,6.43
2018-12-09T11:19:42.563Z,7.33
2018-12-09T11:22:12.418Z,4.83
2018-12-09T11:24:42.173Z,9.13
2018-12-09T11:27:11.051Z,8.77
2018-12-09T11:29:40.001Z,4.73
2018-12-09T11:32:08.948Z,9.20
2018-12-09T11:34:38.035Z,6.10
2018-12-09T11:37:07.457Z,4.97
2018-12-09T11:39:36.363Z,4.03
2018-12-09T11:42:05.598Z,6.30
2018-12-09T11:44:34.855Z,5.07
2018-12-09T11:47:03.805Z,5.50
2018-12-09T11:49:32.840Z,4.03
2018-12-09T11:52:01.814Z,6.23
2018-12-09T11:54:30.779Z,4.17
2018-12-09T11:56:59.762Z,50.07
2018-12-09T11:59:28.728Z,5.17
2018-12-09T12:01:57.794Z,10.40
2018-12-09T12:04:26.735Z,5.33
2018-12-09T12:06:55.735Z,7.10
2018-12-09T12:09:24.670Z,6.53
2018-12-09T12:11:53.683Z,7.27
2018-12-09T12:14:22.619Z,6.93
2018-12-09T12:16:51.521Z,4.67
2018-12-09T12:19:21.758Z,4.67
2018-12-09T12:21:50.778Z,4.00
2018-12-09T12:24:20.879Z,5.27
2018-12-09T12:26:50.125Z,4.17
2018-12-09T12:29:19.006Z,7.67
2018-12-09T12:31:47.922Z,8.37
2018-12-09T12:34:16.849Z,6.00
2018-12-09T12:36:46.665Z,4.73
2018-12-09T12:39:15.998Z,4.03
2018-12-09T12:41:44.961Z,11.47
2018-12-09T12:44:14.381Z,7.20
2018-12-09T12:46:43.850Z,6.00
2018-12-09T12:49:13.266Z,2.43
2018-12-09T12:51:42.863Z,5.37
2018-12-09T12:54:11.982Z,7.07
2018-12-09T12:56:40.945Z,9.60
2018-12-09T12:59:09.881Z,5.73
2018-12-09T13:01:39.162Z,8.43
2018-12-09T13:04:08.771Z,2.40
2018-12-09T13:06:37.776Z,8.07
2018-12-09T13:09:08.332Z,6.57
2018-12-09T13:11:37.735Z,8.20
2018-12-09T13:14:06.785Z,4.60
2018-12-09T13:16:35.892Z,6.47
2018-12-09T13:19:05.125Z,3.53
2018-12-09T13:21:34.340Z,5.00
2018-12-09T13:24:03.337Z,4.07
2018-12-09T13:26:32.305Z,24.00
2018-12-09T13:29:01.425Z,16.07
2018-12-09T13:31:30.621Z,10.50
2018-12-09T13:33:59.552Z,9.70
2018-12-09T13:36:28.778Z,10.00
2018-12-09T13:38:57.795Z,12.37
2018-12-09T13:41:27.349Z,7.13
2018-12-09T13:43:56.479Z,16.13
2018-12-09T13:46:25.371Z,2.93
2018-12-09T13:48:55.158Z,6.53
2018-12-09T13:51:24.182Z,4.47
2018-12-09T13:53:53.270Z,3.93
2018-12-09T13:56:22.413Z,7.33
2018-12-09T13:58:52.468Z,9.00
2018-12-09T14:01:21.653Z,5.00
2018-12-09T14:03:50.861Z,7.10
2018-12-09T14:06:20.123Z,6.90
2018-12-09T14:08:49.381Z,9.73
2018-12-09T14:11:18.834Z,8.23
2018-12-09T14:13:48.391Z,8.13
2018-12-09T14:16:17.466Z,6.83
2018-12-09T14:18:46.692Z,7.37
2018-12-09T14:21:15.590Z,9.57
2018-12-09T14:23:44.591Z,7.70
2018-12-09T14:26:13.519Z,11.33
2018-12-09T14:28:42.798Z,13.17
2018-12-09T14:31:12.489Z,9.93
2018-12-09T14:33:41.517Z,11.47
2018-12-09T14:36:10.461Z,9.00
2018-12-09T14:38:39.583Z,12.50
2018-12-09T14:41:08.613Z,13.03
2018-12-09T14:43:38.071Z,10.50
2018-12-09T14:46:07.157Z,12.20
2018-12-09T14:48:36.625Z,11.33
2018-12-09T14:51:05.495Z,7.43
2018-12-09T14:53:34.445Z,10.57
2018-12-09T14:56:04.752Z,4.70
2018-12-09T14:58:33.969Z,10.47
2018-12-09T15:01:03.096Z,8.60
2018-12-09T15:03:32.047Z,4.73
2018-12-09T15:06:01.076Z,10.77
2018-12-09T15:08:30.757Z,12.03
2018-12-09T15:10:59.804Z,10.43
2018-12-09T15:13:29.376Z,8.70
2018-12-09T15:15:58.388Z,12.20
2018-12-09T15:18:27.365Z,13.97
2018-12-09T15:20:56.604Z,20.00
2018-12-09T15:23:25.740Z,7.73
2018-12-09T15:25:54.842Z,7.40
2018-12-09T15:28:24.431Z,13.63
2018-12-09T15:30:53.369Z,9.87
2018-12-09T15:33:22.726Z,12.27
2018-12-09T15:35:51.698Z,6.37
2018-12-09T15:38:20.794Z,5.27
2018-12-09T15:40:50.058Z,18.43
2018-12-09T15:43:18.909Z,14.43
2018-12-09T15:45:47.956Z,6.83
2018-12-09T15:48:17.121Z,14.73
2018-12-09T15:50:46.268Z,17.17
2018-12-09T15:53:15.234Z,12.83
2018-12-09T15:56:07.136Z,5.57
2018-12-09T15:58:40.651Z,14.23
2018-12-09T16:01:13.765Z,17.10
2018-12-09T16:03:42.966Z,14.63
2018-12-09T16:06:11.893Z,16.93
2018-12-09T16:08:40.944Z,11.63
2018-12-09T16:11:10.327Z,24.13
2018-12-09T16:13:41.236Z,14.00
2018-12-09T16:16:10.702Z,25.53
2018-12-09T16:18:39.600Z,18.83
2018-12-09T16:21:08.663Z,16.90
2018-12-09T16:23:37.706Z,20.73
2018-12-09T16:26:06.648Z,13.67
2018-12-09T16:28:35.641Z,13.53
2018-12-09T16:31:04.812Z,11.10
2018-12-09T16:33:33.771Z,13.37
2018-12-09T16:36:02.791Z,14.30
2018-12-09T16:38:32.612Z,14.80
2018-12-09T16:41:01.570Z,15.60
2018-12-09T16:43:30.444Z,17.73
2018-12-09T16:45:59.513Z,14.40
2018-12-09T16:48:28.481Z,16.63
2018-12-09T16:50:57.447Z,14.43
2018-12-09T16:53:26.595Z,11.87
2018-12-09T16:55:55.531Z,16.40
2018-12-09T16:58:24.677Z,9.27
2018-12-09T17:00:53.714Z,11.97
2018-12-09T17:03:23.361Z,21.97
2018-12-09T17:05:52.323Z,18.80
2018-12-09T17:08:21.606Z,12.37
2018-12-09T17:10:50.730Z,12.07
2018-12-09T17:13:19.895Z,18.00
2018-12-09T17:15:48.826Z,14.30
2018-12-09T17:18:17.693Z,11.60
2018-12-09T17:20:46.653Z,12.00
2018-12-09T17:23:15.634Z,20.03
2018-12-09T17:25:44.569Z,16.60
2018-12-09T17:28:13.952Z,8.70
2018-12-09T17:30:43.912Z,12.37
2018-12-09T17:33:12.825Z,18.00
2018-12-09T17:35:42.144Z,15.30
2018-12-09T17:38:11.418Z,7.47
2018-12-09T17:40:40.292Z,15.63
2018-12-09T17:43:09.197Z,10.20
2018-12-09T17:45:38.120Z,15.00
2018-12-09T17:48:07.125Z,8.87
2018-12-09T17:50:36.087Z,11.27
2018-12-09T17:53:05.816Z,9.47
2018-12-09T17:55:35.003Z,13.73
2018-12-09T17:58:04.186Z,17.37
2018-12-09T18:00:33.489Z,18.43
2018-12-09T18:03:02.449Z,15.73
2018-12-09T18:05:31.379Z,14.23
2018-12-09T18:08:00.335Z,13.43
2018-12-09T18:10:29.312Z,17.33
2018-12-09T18:12:58.325Z,11.47
2018-12-09T18:15:27.242Z,15.10
2018-12-09T18:17:56.185Z,12.23
2018-12-09T18:20:25.306Z,11.27
2018-12-09T18:22:54.265Z,8.70
2018-12-09T18:25:23.211Z,11.80
2018-12-09T18:27:52.127Z,13.50
2018-12-09T18:30:20.998Z,8.87
2018-12-09T18:32:50.070Z,11.07
2018-12-09T18:35:19.413Z,10.13
2018-12-09T18:37:49.312Z,18.37
2018-12-09T18:40:18.325Z,10.67
2018-12-09T18:42:47.274Z,15.43
2018-12-09T18:45:16.179Z,10.77
2018-12-09T18:47:45.154Z,15.10
2018-12-09T18:50:14.426Z,9.97
2018-12-09T18:52:43.401Z,12.37
2018-12-09T18:55:12.336Z,16.90
2018-12-09T18:57:41.286Z,21.33
2018-12-09T19:00:10.235Z,16.17
2018-12-09T19:02:39.374Z,12.20
2018-12-09T19:05:08.413Z,18.27
2018-12-09T19:07:37.344Z,13.57
2018-12-09T19:10:08.142Z,12.23
2018-12-09T19:12:38.447Z,15.07
2018-12-09T19:15:13.330Z,15.30
2018-12-09T19:17:42.380Z,19.07
2018-12-09T19:20:11.284Z,23.37
2018-12-09T19:22:40.713Z,19.10
2018-12-09T19:25:09.710Z,12.77
2018-12-09T19:27:38.973Z,17.67
2018-12-09T19:30:08.190Z,13.93
2018-12-09T19:32:38.178Z,15.30
2018-12-09T19:35:07.392Z,14.50
2018-12-09T19:37:36.689Z,11.83
2018-12-09T19:40:06.223Z,14.23
2018-12-09T19:42:35.269Z,11.53
2018-12-09T19:45:04.668Z,16.93
2018-12-09T19:47:33.659Z,13.17
2018-12-09T19:50:02.687Z,12.57
2018-12-09T19:52:31.634Z,11.47
2018-12-09T19:55:00.772Z,6.03
2018-12-09T19:57:30.044Z,19.87
2018-12-09T19:59:58.965Z,14.60
2018-12-09T20:02:28.051Z,17.47
2018-12-09T20:04:57.377Z,12.63
2018-12-09T20:07:26.311Z,13.57
2018-12-09T20:09:55.358Z,14.77
2018-12-09T20:12:24.267Z,14.07
2018-12-09T20:14:53.255Z,16.83
2018-12-09T20:17:22.135Z,13.37
2018-12-09T20:19:51.181Z,24.47
2018-12-09T20:22:20.154Z,11.10
2018-12-09T20:24:49.156Z,12.70
2018-12-09T20:27:18.153Z,12.70
2018-12-09T20:29:47.418Z,13.60
2018-12-09T20:32:16.316Z,17.50
2018-12-09T20:34:45.281Z,15.43
2018-12-09T20:37:14.201Z,14.33
2018-12-09T20:39:43.348Z,7.50
2018-12-09T20:42:12.393Z,9.93
2018-12-09T20:44:41.932Z,16.07
2018-12-09T20:47:11.931Z,10.73
2018-12-09T20:49:40.916Z,16.17
2018-12-09T20:52:09.857Z,11.23
2018-12-09T20:54:38.811Z,19.57
2018-12-09T20:57:08.406Z,10.37
2018-12-09T20:59:37.553Z,11.83
2018-12-09T21:02:06.759Z,12.87
2018-12-09T21:04:35.867Z,18.13
2018-12-09T21:07:04.956Z,11.87
2018-12-09T21:09:33.910Z,19.73
2018-12-09T21:12:02.930Z,10.00
2018-12-09T21:14:32.578Z,14.27
2018-12-09T21:17:01.644Z,9.60
2018-12-09T21:19:30.896Z,15.53
2018-12-09T21:21:59.826Z,18.13
2018-12-09T21:24:28.843Z,9.17
2018-12-09T21:26:58.103Z,20.37
2018-12-09T21:29:27.708Z,13.37
2018-12-09T21:31:58.211Z,12.53
2018-12-09T21:34:27.841Z,12.13
2018-12-09T21:36:57.030Z,12.60
2018-12-09T21:39:26.047Z,11.40
2018-12-09T21:41:57.289Z,13.47
2018-12-09T21:44:26.474Z,14.53
2018-12-09T21:46:55.848Z,10.73
2018-12-09T21:49:25.182Z,13.33
2018-12-09T21:51:54.412Z,9.03
2018-12-09T21:54:23.558Z,10.47
2018-12-09T21:56:52.513Z,15.40
2018-12-09T21:59:21.502Z,8.43
2018-12-09T22:01:50.905Z,12.30
2018-12-09T22:04:24.965Z,10.60
2018-12-09T22:07:01.467Z,17.60
2018-12-09T22:09:31.625Z,20.20
2018-12-09T22:12:00.745Z,10.83
2018-12-09T22:14:30.029Z,8.77
2018-12-09T22:16:59.035Z,7.93
2018-12-09T22:19:27.932Z,11.13
2018-12-09T22:21:56.907Z,8.73
2018-12-09T22:24:25.787Z,10.13
2018-12-09T22:26:54.730Z,9.83
2018-12-09T22:29:23.679Z,10.70
2018-12-09T22:31:53.085Z,10.23
2018-12-09T22:34:23.761Z,12.70
2018-12-09T22:36:52.663Z,9.93
2018-12-09T22:39:21.549Z,4.40
2018-12-09T22:41:50.760Z,9.40
2018-12-09T22:44:19.677Z,9.40
2018-12-09T22:46:48.612Z,8.93
2018-12-09T22:49:17.490Z,7.73
2018-12-09T22:51:46.512Z,5.90
2018-12-09T22:54:15.473Z,7.90
2018-12-09T22:56:44.699Z,12.63
2018-12-09T22:59:13.641Z,7.03
2018-12-09T23:01:47.468Z,5.73
2018-12-09T23:04:16.625Z,7.53
2018-12-09T23:06:45.576Z,6.83
2018-12-09T23:09:14.543Z,4.60
2018-12-09T23:11:43.621Z,10.10
2018-12-09T23:14:13.214Z,7.97
2018-12-09T23:16:42.355Z,8.10
2018-12-09T23:19:11.311Z,7.80
2018-12-09T23:21:40.329Z,8.53
2018-12-09T23:24:09.276Z,6.50
2018-12-09T23:26:38.328Z,10.87
2018-12-09T23:29:07.429Z,7.73
2018-12-09T23:31:36.539Z,7.73
2018-12-09T23:34:05.489Z,6.13
2018-12-09T23:36:34.426Z,8.03
2018-12-09T23:39:04.658Z,6.20
2018-12-09T23:41:33.699Z,6.57
2018-12-09T23:44:03.103Z,3.60
2018-12-09T23:46:32.123Z,3.90
2018-12-09T23:49:01.083Z,3.97
2018-12-09T23:51:29.975Z,3.10
2018-12-09T23:53:59.275Z,2.87
2018-12-09T23:56:28.139Z,6.80
2018-12-09T23:58:57.113Z,6.83
